Time;durP1;ratioP1;P1;durP2;ratioP2;P2;SDS_P1;SDS_P2;PMS_P1;PMS_P2;Temp;Humidity;BMP_temperature;BMP_pressure;BME280_temperature;BME280_humidity;BME280_pressure;Samples;Min_cycle;Max_cycle;Signal;HPM_P1;HPM_P2
2022/12/26 00:37:41;;;;;;;8.40;4.10;;;;;;;13.96;83.76;100909.72;12178831;23;96810;-89
2022/12/26 00:42:45;;;;;;;6.22;3.83;;;;;;;14.05;83.74;100906.72;12570948;23;96797;-90
2022/12/26 00:47:49;;;;;;;7.80;3.87;;;;;;;14.00;83.86;100905.16;12684407;22;96666;-87
2022/12/26 00:52:57;;;;;;;6.70;4.20;;;;;;;14.04;83.61;100906.78;12864575;22;96607;-90
2022/12/26 00:58:01;;;;;;;7.47;3.70;;;;;;;13.90;84.09;100902.03;12864692;22;96691;-88
2022/12/26 01:03:08;;;;;;;8.80;3.83;;;;;;;13.80;84.46;100899.84;12864038;22;96593;-90
2022/12/26 01:08:16;;;;;;;9.27;4.20;;;;;;;13.69;84.92;100906.44;12865093;22;96679;-89
2022/12/26 01:13:26;;;;;;;4.43;3.63;;;;;;;13.68;84.91;100906.53;12864006;22;97145;-89
2022/12/26 01:18:31;;;;;;;5.17;3.40;;;;;;;13.69;84.35;100898.50;12864054;22;97028;-89
2022/12/26 01:23:39;;;;;;;4.35;3.30;;;;;;;13.81;83.96;100906.88;12863836;22;97118;-89
2022/12/26 01:28:43;;;;;;;4.72;3.33;;;;;;;13.85;83.62;100911.94;12864847;22;96551;-89
2022/12/26 01:33:47;;;;;;;7.87;3.40;;;;;;;13.83;83.39;100905.88;12865472;22;96788;-84
2022/12/26 01:38:54;;;;;;;5.07;3.40;;;;;;;13.91;83.55;100918.78;12903058;22;97120;-88
2022/12/26 01:44:01;;;;;;;6.22;3.10;;;;;;;13.95;83.31;100930.97;12928208;22;96835;-89
2022/12/26 01:49:10;;;;;;;5.82;3.97;;;;;;;13.94;83.50;100942.44;12927588;22;97002;-89
2022/12/26 01:54:18;;;;;;;6.45;4.10;;;;;;;13.91;83.72;100938.16;12925818;22;96606;-87
2022/12/26 01:59:43;;;;;;;7.07;3.95;;;;;;;13.96;83.78;100957.34;12927623;22;97501;-90
2022/12/26 02:10:21;;;;;;;5.90;3.85;;;;;;;14.05;83.12;100964.94;12928636;22;96608;-90
2022/12/26 02:15:26;;;;;;;6.72;3.60;;;;;;;13.98;83.56;100963.44;12927252;22;96661;-90
2022/12/26 02:20:39;;;;;;;6.57;3.70;;;;;;;13.84;83.77;100959.63;12927944;22;96712;-89
2022/12/26 02:26:23;;;;;;;6.40;3.38;;;;;;;13.69;84.33;100967.28;12927403;22;96673;-89
2022/12/26 02:31:36;;;;;;;8.57;3.22;;;;;;;13.61;84.61;100965.88;12867993;22;96916;-85
2022/12/26 02:36:59;;;;;;;10.63;3.72;;;;;;;13.59;84.17;100987.09;12926954;22;96811;-86
2022/12/26 02:42:15;;;;;;;4.72;3.30;;;;;;;13.63;84.49;100994.00;12926701;22;96663;-87
2022/12/26 02:47:33;;;;;;;7.30;3.28;;;;;;;13.75;84.10;101015.56;12925806;22;96553;-86
2022/12/26 03:14:44;;;;;;;7.95;3.80;;;;;;;13.92;84.14;101034.28;12925534;22;96984;-90
2022/12/26 03:20:00;;;;;;;6.32;3.83;;;;;;;13.83;84.73;101034.66;12927939;22;96512;-89
2022/12/26 03:30:50;;;;;;;7.68;3.65;;;;;;;13.81;84.20;101049.72;12928090;22;96773;-87
2022/12/26 03:35:58;;;;;;;6.10;3.17;;;;;;;13.78;84.15;101052.50;12928170;22;96660;-90
2022/12/26 04:19:44;;;;;;;5.35;4.35;;;;;;;13.58;84.92;101075.31;12929192;22;96589;-91
2022/12/26 04:46:35;;;;;;;7.13;3.25;;;;;;;13.71;84.43;101082.75;12927577;22;97035;-85
2022/12/26 04:51:40;;;;;;;6.22;2.67;;;;;;;13.59;84.66;101082.28;12926980;22;97019;-86
2022/12/26 04:56:45;;;;;;;5.43;3.10;;;;;;;13.63;84.58;101096.25;12926278;22;96827;-85
2022/12/26 05:12:38;;;;;;;5.15;3.22;;;;;;;13.76;84.27;101117.81;12928144;22;97000;-85
2022/12/26 05:28:43;;;;;;;6.38;3.55;;;;;;;13.44;85.18;101125.19;12926046;22;97006;-85
2022/12/26 05:34:07;;;;;;;9.52;3.55;;;;;;;13.37;85.67;101123.69;12926937;22;97240;-85
2022/12/26 05:39:11;;;;;;;6.20;2.92;;;;;;;13.24;86.06;101132.97;12925508;22;96522;-87
2022/12/26 05:44:18;;;;;;;6.63;3.85;;;;;;;13.26;85.73;101138.25;12926810;22;96952;-88
2022/12/26 05:49:22;;;;;;;4.10;3.22;;;;;;;13.28;85.47;101155.75;12926443;22;97081;-87
2022/12/26 05:54:26;;;;;;;7.20;3.10;;;;;;;13.27;85.83;101142.59;12926790;22;96577;-87
2022/12/26 05:59:33;;;;;;;5.97;2.90;;;;;;;13.24;85.56;101140.91;12926359;22;98456;-88
2022/12/26 06:04:38;;;;;;;4.93;3.03;;;;;;;13.24;85.85;101159.41;12927101;22;97226;-88
2022/12/26 06:09:44;;;;;;;4.80;3.13;;;;;;;13.27;85.70;101176.97;12926631;22;97031;-92
2022/12/26 06:14:53;;;;;;;10.10;3.63;;;;;;;13.27;85.65;101175.19;12926505;22;96522;-90
2022/12/26 06:19:58;;;;;;;5.57;2.95;;;;;;;13.20;85.85;101170.16;12925293;22;96913;-87
2022/12/26 06:25:01;;;;;;;4.55;3.10;;;;;;;13.16;85.86;101179.97;12925696;22;96568;-88
2022/12/26 06:30:10;;;;;;;4.33;3.37;;;;;;;13.19;85.77;101171.09;12925986;22;96780;-88
2022/12/26 06:35:13;;;;;;;4.47;3.03;;;;;;;13.13;85.53;101179.22;12926838;22;96569;-91
2022/12/26 06:40:18;;;;;;;7.20;3.20;;;;;;;13.10;85.89;101189.91;12926930;22;97212;-92
2022/12/26 06:45:25;;;;;;;5.97;3.10;;;;;;;13.11;85.79;101205.72;12927011;22;96577;-90
2022/12/26 06:50:29;;;;;;;6.80;3.33;;;;;;;13.22;85.76;101213.25;12930522;22;96697;-91
2022/12/26 06:55:34;;;;;;;5.40;2.97;;;;;;;13.35;85.22;101222.47;12935411;22;96669;-92
2022/12/26 07:00:43;;;;;;;7.23;3.50;;;;;;;13.40;85.00;101216.13;12931181;22;96569;-93
2022/12/26 07:05:48;;;;;;;5.35;3.20;;;;;;;13.39;85.09;101226.75;12938033;22;96558;-93
2022/12/26 08:32:32;;;;;;;4.18;2.72;;;;;;;12.99;86.70;101325.03;12133865;23;97400;-80
2022/12/26 08:43:32;;;;;;;5.93;3.58;;;;;;;13.06;85.98;101345.06;12266545;23;96855;-78
2022/12/26 08:48:58;;;;;;;5.07;3.42;;;;;;;13.06;86.21;101350.34;12781588;22;97223;-78
2022/12/26 08:54:14;;;;;;;6.15;4.40;;;;;;;13.13;85.91;101353.63;12862474;22;97035;-78
2022/12/26 09:06:24;;;;;;;6.70;4.57;;;;;;;13.19;85.71;101371.97;12861326;22;97008;-78
2022/12/26 09:24:08;;;;;;;7.85;5.15;;;;;;;13.30;86.37;101386.53;12507750;22;97506;-81
2022/12/26 09:29:19;;;;;;;7.68;4.90;;;;;;;13.35;86.26;101391.66;12852257;22;97472;-80
2022/12/26 09:34:38;;;;;;;7.07;4.10;;;;;;;13.31;86.12;101414.69;12862402;22;96615;-82
2022/12/26 09:39:46;;;;;;;5.80;4.10;;;;;;;13.37;85.99;101427.72;12861674;22;96549;-82
2022/12/26 09:51:01;;;;;;;5.97;3.50;;;;;;;13.48;85.84;101427.38;12861588;22;97092;-81
2022/12/26 09:56:08;;;;;;;8.18;3.70;;;;;;;13.69;85.40;101442.53;12862781;22;97174;-80
2022/12/26 10:01:36;;;;;;;10.43;6.07;;;;;;;13.69;85.54;101456.63;12860746;22;96560;-80
2022/12/26 10:06:49;;;;;;;29.13;18.55;;;;;;;13.93;85.24;101451.41;12861489;22;96699;-80
2022/12/26 10:12:14;;;;;;;29.90;20.88;;;;;;;13.94;85.02;101475.19;12861770;22;96619;-81
2022/12/26 10:17:35;;;;;;;11.68;8.70;;;;;;;13.96;84.55;101498.94;12860697;22;96616;-81
2022/12/26 10:23:11;;;;;;;7.28;5.25;;;;;;;14.04;84.23;101492.50;12862089;22;96683;-82
2022/12/26 10:34:31;;;;;;;6.25;4.85;;;;;;;14.36;83.16;101507.28;12802845;22;96911;-82
2022/12/26 10:39:48;;;;;;;7.78;4.18;;;;;;;14.27;82.94;101503.19;12862377;22;96495;-82
2022/12/26 10:45:16;;;;;;;4.95;3.80;;;;;;;14.23;82.31;101511.28;12861517;22;96747;-82
2022/12/26 10:50:56;;;;;;;6.60;3.92;;;;;;;14.24;82.63;101507.72;12846802;22;97194;-80
2022/12/26 10:57:13;;;;;;;;;;;;;;;;;;;;;
2022/12/26 11:02:35;;;;;;;6.22;3.90;;;;;;;14.08;83.13;101547.06;12585200;23;96971;-78
2022/12/26 11:07:46;;;;;;;6.50;3.95;;;;;;;14.07;83.02;101550.66;12746385;22;96820;-78
2022/12/26 11:18:28;;;;;;;5.15;3.88;;;;;;;14.04;83.16;101528.72;12862364;22;96802;-78
2022/12/26 11:24:25;;;;;;;7.68;4.95;;;;;;;13.88;83.99;101519.50;12860477;22;96568;-78
2022/12/26 11:29:36;;;;;;;6.28;3.78;;;;;;;13.97;83.59;101500.69;12861265;22;96527;-77
2022/12/26 11:34:56;;;;;;;5.70;4.15;;;;;;;13.93;83.42;101509.63;12861625;22;97261;-78
2022/12/26 11:40:27;;;;;;;6.18;3.83;;;;;;;14.06;82.97;101513.63;12866883;22;96463;-78
2022/12/26 11:45:46;;;;;;;5.35;3.25;;;;;;;14.25;82.17;101506.78;12866159;22;96511;-78
2022/12/26 11:51:07;;;;;;;4.03;3.05;;;;;;;14.32;81.59;101516.25;12866497;22;96589;-78
2022/12/26 11:56:59;;;;;;;;;;;;;;;;;;;;;
2022/12/26 12:02:36;;;;;;;3.05;2.50;;;;;;;14.36;81.40;101528.47;12854001;22;96772;-78
2022/12/26 12:08:19;;;;;;;4.28;2.22;;;;;;;14.77;80.78;101522.56;12863603;22;96757;-78
2022/12/26 12:13:52;;;;;;;3.42;2.17;;;;;;;14.98;80.95;101513.81;12863356;22;96861;-79
2022/12/26 12:19:27;;;;;;;2.83;2.40;;;;;;;15.09;80.27;101511.63;12865587;22;96658;-78
2022/12/26 12:25:16;;;;;;;;;;;;;;;;;;;;;
2022/12/26 12:30:53;;;;;;;5.10;2.70;;;;;;;15.29;79.48;101495.84;12864172;22;96616;-78
2022/12/26 12:36:15;;;;;;;3.53;2.58;;;;;;;15.14;79.53;101484.94;12863740;22;96675;-78
2022/12/26 12:42:17;;;;;;;4.68;2.10;;;;;;;14.93;79.11;101488.41;12864000;22;96555;-78
2022/12/26 12:47:47;;;;;;;3.00;2.15;;;;;;;14.97;78.89;101484.72;12857513;22;96997;-78
2022/12/26 12:53:40;;;;;;;2.88;1.73;;;;;;;14.96;77.13;101486.50;12843645;22;96962;-78
2022/12/26 12:58:57;;;;;;;3.35;1.90;;;;;;;15.10;77.37;101467.41;12862459;22;97424;-78
2022/12/26 13:04:08;;;;;;;2.30;1.98;;;;;;;15.11;76.40;101466.50;12861298;22;96963;-77
2022/12/26 13:09:15;;;;;;;2.45;2.05;;;;;;;15.29;76.89;101465.78;12862450;22;97189;-78
2022/12/26 13:14:25;;;;;;;2.30;1.80;;;;;;;15.18;77.02;101465.34;12866297;22;96922;-80
2022/12/26 13:19:39;;;;;;;3.42;1.90;;;;;;;15.15;76.08;101461.00;12861865;22;96886;-79
2022/12/26 13:24:45;;;;;;;3.97;1.77;;;;;;;15.55;75.74;101470.91;12861966;22;96535;-80
2022/12/26 13:29:51;;;;;;;2.95;1.30;;;;;;;15.63;73.86;101466.19;12864291;22;96980;-79
2022/12/26 13:34:56;;;;;;;2.60;1.55;;;;;;;15.84;73.49;101452.00;12863096;22;96931;-79
2022/12/26 13:40:02;;;;;;;2.55;1.35;;;;;;;15.83;73.26;101456.47;12863316;22;97264;-78
2022/12/26 13:45:38;;;;;;;3.33;1.63;;;;;;;15.83;72.13;101440.53;12862598;22;96540;-78
2022/12/26 13:50:51;;;;;;;2.83;1.40;;;;;;;15.70;73.62;101441.97;12854263;22;96867;-78
2022/12/26 13:55:59;;;;;;;2.78;1.65;;;;;;;15.66;73.95;101445.69;12863340;22;96550;-79
2022/12/26 14:01:11;;;;;;;1.75;1.33;;;;;;;15.64;73.27;101438.72;12862873;22;96893;-79
2022/12/26 14:06:39;;;;;;;2.10;1.33;;;;;;;15.84;72.66;101431.63;12862491;22;96639;-79
2022/12/26 14:11:56;;;;;;;2.35;1.73;;;;;;;15.93;73.15;101436.56;12863414;22;96949;-80
2022/12/26 14:17:12;;;;;;;3.15;1.40;;;;;;;15.84;73.68;101434.28;12863621;22;96610;-81
2022/12/26 14:22:27;;;;;;;3.45;1.60;;;;;;;15.81;73.37;101425.59;12864183;22;96827;-81
2022/12/26 14:27:39;;;;;;;3.05;1.55;;;;;;;15.83;73.01;101440.53;12862286;22;97145;-81
2022/12/26 14:32:53;;;;;;;3.20;1.85;;;;;;;16.06;72.48;101436.03;12859446;22;97179;-79
2022/12/26 14:38:12;;;;;;;1.75;1.45;;;;;;;16.01;72.62;101435.38;12859525;22;97117;-79
2022/12/26 14:43:31;;;;;;;2.95;1.65;;;;;;;15.90;71.84;101434.03;12859872;22;98515;-79
2022/12/26 14:48:48;;;;;;;2.00;1.55;;;;;;;15.92;72.32;101455.22;12859485;22;96955;-79
2022/12/26 14:54:21;;;;;;;2.30;1.75;;;;;;;15.97;72.38;101450.56;12860386;22;97458;-83
2022/12/26 14:59:29;;;;;;;2.65;1.70;;;;;;;16.20;71.83;101457.53;12840916;22;96839;-84
2022/12/26 15:05:07;;;;;;;2.97;1.95;;;;;;;16.51;70.95;101464.13;12859457;22;97251;-81
2022/12/26 15:10:49;;;;;;;2.67;1.60;;;;;;;16.52;71.02;101463.19;12859476;22;97105;-81
2022/12/26 15:16:11;;;;;;;2.70;1.70;;;;;;;16.52;70.33;101472.94;12830579;22;97425;-81
2022/12/26 15:21:53;;;;;;;2.88;1.92;;;;;;;16.68;69.78;101484.63;12859362;22;97120;-82
2022/12/26 15:27:12;;;;;;;3.80;1.90;;;;;;;17.34;67.97;101476.19;12862271;22;96942;-81
2022/12/26 15:32:24;;;;;;;2.35;1.50;;;;;;;17.44;66.55;101466.81;12862649;22;96911;-81
2022/12/26 15:37:52;;;;;;;1.83;1.50;;;;;;;17.43;66.16;101470.38;12863434;22;97102;-81
2022/12/26 15:43:16;;;;;;;2.40;1.80;;;;;;;17.31;66.58;101470.97;12864141;22;96573;-81
2022/12/26 15:48:36;;;;;;;2.80;1.70;;;;;;;17.06;67.68;101483.72;12862449;22;96686;-80
2022/12/26 15:53:56;;;;;;;4.20;2.10;;;;;;;16.80;68.92;101481.41;12863364;22;96860;-79
2022/12/26 15:59:16;;;;;;;2.72;2.10;;;;;;;16.14;70.35;101469.28;12863777;22;96624;-78
2022/12/26 16:04:25;;;;;;;2.53;1.85;;;;;;;15.86;71.34;101484.66;12863711;22;96704;-78
2022/12/26 16:09:41;;;;;;;3.10;1.90;;;;;;;15.90;71.56;101500.41;12862163;22;97078;-78
2022/12/26 16:14:44;;;;;;;3.10;1.77;;;;;;;15.86;71.59;101490.84;12862660;22;97147;-78
2022/12/26 16:19:51;;;;;;;3.95;2.40;;;;;;;15.63;71.86;101490.91;12863273;22;96696;-78
2022/12/26 16:24:55;;;;;;;2.97;2.25;;;;;;;15.54;72.70;101501.91;12859959;22;96555;-78
2022/12/26 16:30:02;;;;;;;3.77;2.60;;;;;;;15.39;73.77;101512.28;12862578;22;96477;-78
2022/12/26 16:35:21;;;;;;;3.60;2.42;;;;;;;15.41;73.56;101518.34;12862632;22;97309;-78
2022/12/26 16:40:28;;;;;;;3.80;2.80;;;;;;;15.24;73.85;101513.69;12862648;22;97427;-78
2022/12/26 16:45:33;;;;;;;3.38;2.60;;;;;;;15.37;74.28;101530.03;12863618;22;96826;-78
2022/12/26 16:50:47;;;;;;;5.20;2.70;;;;;;;15.34;74.72;101527.47;12863666;22;96882;-78
2022/12/26 16:55:52;;;;;;;3.75;2.72;;;;;;;15.23;74.75;101522.56;12863166;22;96792;-78
2022/12/26 17:01:07;;;;;;;4.00;2.60;;;;;;;15.12;75.65;101521.25;12861334;22;96732;-81
2022/12/26 17:06:16;;;;;;;4.63;3.20;;;;;;;15.05;75.76;101523.25;12860671;22;97223;-79
2022/12/26 17:11:28;;;;;;;5.80;3.08;;;;;;;15.15;75.59;101529.06;12864463;22;97027;-78
2022/12/26 17:16:35;;;;;;;6.35;3.70;;;;;;;15.24;75.33;101534.03;12862019;22;96681;-79
2022/12/26 17:21:39;;;;;;;5.57;3.58;;;;;;;15.27;75.51;101524.19;12863999;22;96531;-80
2022/12/26 17:26:43;;;;;;;;;;;;;;;15.19;75.71;101530.69;12861121;22;97481;-78
2022/12/26 17:31:50;;;;;;;6.18;5.40;;;;;;;15.29;75.32;101535.63;12859792;22;97073;-78
2022/12/26 17:36:55;;;;;;;3.95;3.28;;;;;;;15.19;75.47;101539.53;12861659;22;97038;-79
2022/12/26 17:42:18;;;;;;;7.22;4.10;;;;;;;15.13;76.57;101544.19;12861317;22;96784;-79
2022/12/26 18:23:21;;;;;;;6.28;4.75;;;;;;;15.07;76.72;101590.34;11887510;24;97792;-78
2022/12/26 18:28:59;;;;;;;;;;;;;;;;;;;;;
2022/12/26 18:46:54;;;;;;;7.03;6.28;;;;;;;14.91;78.90;101583.88;12306323;23;96899;-81
2022/12/26 22:04:29;;;;;;;8.50;7.20;;;;;;;14.26;83.28;101701.81;12293866;23;97359;-77
